Hlavní strana
METAR-TAF:

METAR-TAF

Letiště :

Vancouver, Britská Kolumbie, Kanada

Mezinárodní letiště Vancouver

zeměpisná šířka: 49-11N, zeměpisná délka: 123-10W, výška: 3 m

Aktuální stav počasí

Zpráva byla vytvořena před 23 minutami, v 19:00 UTC
Západní vítr 10 kt
Teplota 12°C
Vlhkost vzduchu 71%
Tlak 1029 hPa
Viditelnost: 48.3 km
Skoro jasno ve výšce 25000 ft

METAR: CYVR 231900Z 26010KT 30SM FEW250 12/07 A3039 RMK CS1 CONTRAILS SLP291

Čas: 12:23 (19:23 UTC)

Předpověď počasí

Zpráva byla vytvořena před 1 hodinou a 45 minutami, v 17:38 UTC
Předpověď platná od 23 v 18 UTC do 24 v 24 UTC
Západoseverozápadní vítr 10 kt
Viditelnost: 10 km
Jasno
Od 24 v 0600 UTC
vítr z různých směrů 3 kt
Viditelnost: 10 km
Polojasno ve výšce 24000 ft
Změna
od 24 v 15 UTC do 24 v 17 UTC
Západoseverozápadní vítr 10 kt

TAF: CYVR 231738Z 2318/2424 29010KT P6SM SKC FM240600 VRB03KT P6SM SCT240 BECMG 2415/2417 29010KT RMK NXT FCST BY 232100Z

Stav a předpovědi počasí z více než 4 000 letišť (zprávy METAR a TAF).

Červené a žluté tečky na mapě představují dostupné meteorologické stanice.

Když kurzor umístíte na tečku, zobrazí se název stanice.

Pak kliknutím zobrazíte stav a předpověď počasí.

Chcete-li změnit mapu, kliknutím na zelené tlačítko se znaménkem +mapu přiblížíte, kliknutím na zelené tlačítko se znaménkem – mapu oddálíte a kliknutím na zelené šipky přejdete na sousední mapy.


METAR-TAF: